createdAt,value
2018-01-19T00:01:29.147Z,10.70
2018-01-19T00:03:56.655Z,10.70
2018-01-19T00:06:24.254Z,10.60
2018-01-19T00:08:51.770Z,10.70
2018-01-19T00:11:20.191Z,10.60
2018-01-19T00:13:47.751Z,10.60
2018-01-19T00:16:15.271Z,10.60
2018-01-19T00:18:42.821Z,10.50
2018-01-19T00:21:10.449Z,10.40
2018-01-19T00:23:37.988Z,10.00
2018-01-19T00:26:05.533Z,9.90
2018-01-19T00:28:33.217Z,9.90
2018-01-19T00:31:00.705Z,9.80
2018-01-19T00:33:28.280Z,9.60
2018-01-19T00:35:55.708Z,9.70
2018-01-19T00:38:23.213Z,9.70
2018-01-19T00:40:50.698Z,9.60
2018-01-19T00:43:18.212Z,9.70
2018-01-19T00:45:45.642Z,9.80
2018-01-19T00:48:13.162Z,9.80
2018-01-19T00:50:40.652Z,9.70
2018-01-19T00:53:08.227Z,9.90
2018-01-19T00:55:35.730Z,9.90
2018-01-19T00:58:03.973Z,9.80
2018-01-19T01:00:31.496Z,9.80
2018-01-19T01:02:58.977Z,9.80
2018-01-19T01:05:26.515Z,9.70
2018-01-19T01:07:54.068Z,9.70
2018-01-19T01:10:21.612Z,9.70
2018-01-19T01:12:49.150Z,9.70
2018-01-19T01:15:17.360Z,9.80
2018-01-19T01:17:44.862Z,9.70
2018-01-19T01:20:12.450Z,9.80
2018-01-19T01:22:39.986Z,9.90
2018-01-19T01:25:07.566Z,9.90
2018-01-19T01:27:35.107Z,10.00
2018-01-19T01:30:02.622Z,10.00
2018-01-19T01:32:30.191Z,10.00
2018-01-19T01:34:57.709Z,9.90
2018-01-19T01:37:25.960Z,9.90
2018-01-19T01:39:53.499Z,9.90
2018-01-19T01:42:21.003Z,9.90
2018-01-19T01:44:48.553Z,9.90
2018-01-19T01:47:16.851Z,9.90
2018-01-19T01:49:44.489Z,9.90
2018-01-19T01:52:12.753Z,9.80
2018-01-19T01:54:40.267Z,9.80
2018-01-19T01:57:07.790Z,9.80
2018-01-19T01:59:35.313Z,9.90
2018-01-19T02:02:02.944Z,9.90
2018-01-19T02:04:30.494Z,9.90
2018-01-19T02:06:58.034Z,9.90
2018-01-19T02:09:25.640Z,9.80
2018-01-19T02:11:53.107Z,9.70
2018-01-19T02:14:20.649Z,9.70
2018-01-19T02:16:48.131Z,9.80
2018-01-19T02:19:15.678Z,9.90
2018-01-19T02:21:43.234Z,9.80
2018-01-19T02:24:10.779Z,9.80
2018-01-19T02:26:38.229Z,9.80
2018-01-19T02:29:05.786Z,9.70
2018-01-19T02:31:33.302Z,9.80
2018-01-19T02:34:01.629Z,9.80
2018-01-19T02:36:29.176Z,9.70
2018-01-19T02:38:56.685Z,9.70
2018-01-19T02:41:24.214Z,9.70
2018-01-19T02:43:51.759Z,9.70
2018-01-19T02:48:53.062Z,9.60
2018-01-19T02:51:20.610Z,9.70
2018-01-19T02:53:48.075Z,9.70
2018-01-19T02:56:15.613Z,9.70
2018-01-19T02:58:43.066Z,9.60
2018-01-19T03:01:10.598Z,9.60
2018-01-19T03:03:38.142Z,9.50
2018-01-19T03:06:06.461Z,9.50
2018-01-19T03:08:34.018Z,9.50
2018-01-19T03:11:01.630Z,9.50
2018-01-19T03:13:29.948Z,9.40
2018-01-19T03:15:57.498Z,9.40
2018-01-19T03:18:25.098Z,9.40
2018-01-19T03:20:52.722Z,9.40
2018-01-19T03:23:20.196Z,9.40
2018-01-19T03:25:47.697Z,9.40
2018-01-19T03:28:15.237Z,9.40
2018-01-19T03:30:42.880Z,9.50
2018-01-19T03:33:10.436Z,9.50
2018-01-19T03:35:37.972Z,9.60
2018-01-19T03:38:05.545Z,9.60
2018-01-19T03:40:33.102Z,9.70
2018-01-19T03:43:00.600Z,9.70
2018-01-19T03:45:28.162Z,9.80
2018-01-19T03:47:55.711Z,9.80
2018-01-19T03:50:23.286Z,9.80
2018-01-19T03:52:50.813Z,9.90
2018-01-19T03:55:18.337Z,9.90
2018-01-19T03:57:46.694Z,9.90
2018-01-19T04:00:14.210Z,9.90
2018-01-19T04:02:42.514Z,10.00
2018-01-19T04:05:10.027Z,10.00
2018-01-19T04:07:37.565Z,10.00
2018-01-19T04:10:05.117Z,9.90
2018-01-19T04:12:33.409Z,10.10
2018-01-19T04:15:01.772Z,10.20
2018-01-19T04:17:29.324Z,10.20
2018-01-19T04:19:56.901Z,10.20
2018-01-19T04:22:24.437Z,10.30
2018-01-19T04:24:52.030Z,10.30
2018-01-19T04:27:19.549Z,10.30
2018-01-19T04:29:47.114Z,10.40
2018-01-19T04:32:14.638Z,10.40
2018-01-19T04:34:42.150Z,10.40
2018-01-19T04:37:10.465Z,10.40
2018-01-19T04:39:37.999Z,10.30
2018-01-19T04:42:05.567Z,10.30
2018-01-19T04:44:33.106Z,10.30
2018-01-19T04:47:00.644Z,10.20
2018-01-19T04:49:28.135Z,10.20
2018-01-19T04:51:56.434Z,10.10
2018-01-19T04:54:24.206Z,10.10
2018-01-19T04:56:51.768Z,10.00
2018-01-19T04:59:19.288Z,10.00
2018-01-19T05:01:46.808Z,10.00
2018-01-19T05:04:14.420Z,10.00
2018-01-19T05:06:41.976Z,10.00
2018-01-19T05:09:10.262Z,9.90
2018-01-19T05:11:37.816Z,9.90
2018-01-19T05:14:05.377Z,10.00
2018-01-19T05:16:32.964Z,9.90
2018-01-19T05:19:00.632Z,9.90
2018-01-19T05:21:28.193Z,9.90
2018-01-19T05:23:55.726Z,9.80
2018-01-19T05:26:23.281Z,9.90
2018-01-19T05:28:50.862Z,9.80
2018-01-19T05:31:18.364Z,9.80
2018-01-19T05:33:45.897Z,9.80
2018-01-19T05:36:13.642Z,9.80
2018-01-19T05:38:41.152Z,9.70
2018-01-19T05:41:09.767Z,9.70
2018-01-19T05:43:37.324Z,9.70
2018-01-19T05:46:05.621Z,9.80
2018-01-19T05:48:33.124Z,9.70
2018-01-19T05:51:00.648Z,9.70
2018-01-19T05:53:28.183Z,9.70
2018-01-19T05:55:55.692Z,9.70
2018-01-19T05:58:23.213Z,9.60
2018-01-19T06:00:50.724Z,9.60
2018-01-19T06:03:18.265Z,9.60
2018-01-19T06:05:45.823Z,9.60
2018-01-19T06:08:13.321Z,9.60
2018-01-19T06:10:41.571Z,9.50
2018-01-19T06:13:09.095Z,9.50
2018-01-19T06:15:36.619Z,9.60
2018-01-19T06:18:04.130Z,9.50
2018-01-19T06:20:31.631Z,9.40
2018-01-19T06:22:59.945Z,9.40
2018-01-19T06:25:27.487Z,9.40
2018-01-19T06:27:55.028Z,9.40
2018-01-19T06:30:23.399Z,9.40
2018-01-19T06:32:50.893Z,9.40
2018-01-19T06:35:18.411Z,9.40
2018-01-19T06:37:46.732Z,9.30
2018-01-19T06:40:14.274Z,9.30
2018-01-19T06:42:41.877Z,9.30
2018-01-19T06:45:09.618Z,9.30
2018-01-19T06:47:37.121Z,9.50
2018-01-19T06:50:04.659Z,9.50
2018-01-19T06:52:32.189Z,9.60
2018-01-19T06:55:00.249Z,9.70
2018-01-19T06:57:27.810Z,9.60
2018-01-19T06:59:55.652Z,9.60
2018-01-19T07:02:23.179Z,9.60
2018-01-19T07:04:50.713Z,9.50
2018-01-19T07:07:18.179Z,9.50
2018-01-19T07:09:45.669Z,9.50
2018-01-19T07:12:13.296Z,9.50
2018-01-19T07:14:40.822Z,9.50
2018-01-19T07:17:08.437Z,9.50
2018-01-19T07:19:37.366Z,9.40
2018-01-19T07:22:04.900Z,9.40
2018-01-19T07:24:32.676Z,9.50
2018-01-19T07:27:00.191Z,9.40
2018-01-19T07:29:27.693Z,9.30
2018-01-19T07:31:55.254Z,9.40
2018-01-19T07:34:23.630Z,9.30
2018-01-19T07:36:51.182Z,9.30
2018-01-19T07:39:18.655Z,9.40
2018-01-19T07:41:46.259Z,9.30
2018-01-19T07:44:13.864Z,9.30
2018-01-19T07:46:41.432Z,9.20
2018-01-19T07:49:09.063Z,9.20
2018-01-19T07:51:36.557Z,9.20
2018-01-19T07:54:04.969Z,9.20
2018-01-19T07:56:32.481Z,9.20
2018-01-19T07:59:00.071Z,9.20
2018-01-19T08:01:27.569Z,9.20
2018-01-19T08:03:55.125Z,9.20
2018-01-19T08:06:22.675Z,9.20
2018-01-19T08:08:51.117Z,9.20
2018-01-19T08:11:19.465Z,9.20
2018-01-19T08:13:47.096Z,9.10
2018-01-19T08:16:14.592Z,9.20
2018-01-19T08:18:42.108Z,9.30
2018-01-19T08:21:09.629Z,9.30
2018-01-19T08:23:37.887Z,9.20
2018-01-19T08:26:05.417Z,9.20
2018-01-19T08:28:33.009Z,9.20
2018-01-19T08:31:00.612Z,9.30
2018-01-19T08:33:28.202Z,9.30
2018-01-19T08:35:55.716Z,9.30
2018-01-19T08:38:23.229Z,9.40
2018-01-19T08:40:50.898Z,9.40
2018-01-19T08:43:18.528Z,9.30
2018-01-19T08:45:46.126Z,9.20
2018-01-19T08:48:13.686Z,9.30
2018-01-19T08:50:41.202Z,9.30
2018-01-19T08:53:08.790Z,9.30
2018-01-19T08:55:36.359Z,9.30
2018-01-19T08:58:04.450Z,9.30
2018-01-19T09:00:32.071Z,9.40
2018-01-19T09:02:59.617Z,9.40
2018-01-19T09:05:27.130Z,9.50
2018-01-19T09:07:55.461Z,9.70
2018-01-19T09:10:22.969Z,9.60
2018-01-19T09:12:51.260Z,9.70
2018-01-19T09:15:18.804Z,9.70
2018-01-19T09:17:47.826Z,9.80
2018-01-19T09:20:15.316Z,9.80
2018-01-19T09:22:42.870Z,9.80
2018-01-19T09:25:10.418Z,9.80
2018-01-19T09:27:37.908Z,9.80
2018-01-19T09:30:05.487Z,9.80
2018-01-19T09:32:33.027Z,9.80
2018-01-19T09:35:00.592Z,9.80
2018-01-19T09:37:28.266Z,9.90
2018-01-19T09:39:55.894Z,10.00
2018-01-19T09:42:23.391Z,10.10
2018-01-19T09:44:51.112Z,10.10
2018-01-19T09:47:18.663Z,10.20
2018-01-19T09:49:46.226Z,10.40
2018-01-19T09:52:13.689Z,10.40
2018-01-19T09:54:41.345Z,10.40
2018-01-19T09:57:09.175Z,10.40
2018-01-19T09:59:36.763Z,10.40
2018-01-19T10:02:04.325Z,10.30
2018-01-19T10:04:31.909Z,10.30
2018-01-19T10:06:59.473Z,10.40
2018-01-19T10:09:26.974Z,10.40
2018-01-19T10:11:55.316Z,10.30
2018-01-19T10:14:22.864Z,10.30
2018-01-19T10:16:50.406Z,10.30
2018-01-19T10:19:17.941Z,10.30
2018-01-19T10:21:45.492Z,10.20
2018-01-19T10:24:13.084Z,10.30
2018-01-19T10:26:40.680Z,10.50
2018-01-19T10:29:08.233Z,10.50
2018-01-19T10:31:37.102Z,10.60
2018-01-19T10:34:04.637Z,10.60
2018-01-19T10:36:32.197Z,10.70
2018-01-19T10:38:59.736Z,10.80
2018-01-19T10:41:28.064Z,10.60
2018-01-19T10:43:55.651Z,10.60
2018-01-19T10:46:24.880Z,11.20
2018-01-19T10:48:53.214Z,11.40
2018-01-19T10:51:20.734Z,11.40
2018-01-19T10:53:48.242Z,11.80
2018-01-19T10:56:15.723Z,12.20
2018-01-19T10:58:43.210Z,12.90
2018-01-19T11:01:10.723Z,13.70
2018-01-19T11:03:39.046Z,13.90
2018-01-19T11:06:06.578Z,13.90
2018-01-19T11:08:34.098Z,13.90
2018-01-19T11:11:01.685Z,13.60
2018-01-19T11:13:29.191Z,13.10
2018-01-19T11:15:56.729Z,13.00
2018-01-19T11:18:25.025Z,13.00
2018-01-19T11:20:52.553Z,13.00
2018-01-19T11:23:20.084Z,13.10
2018-01-19T11:25:48.358Z,13.10
2018-01-19T11:28:15.974Z,13.10
2018-01-19T11:30:43.485Z,12.90
2018-01-19T11:33:10.963Z,12.80
2018-01-19T11:35:39.217Z,12.30
2018-01-19T11:38:06.823Z,12.30
2018-01-19T11:40:34.395Z,12.10
2018-01-19T11:43:01.889Z,12.00
2018-01-19T11:45:29.403Z,11.90
2018-01-19T11:47:56.920Z,11.90
2018-01-19T11:50:25.155Z,11.50
2018-01-19T11:52:52.655Z,11.50
2018-01-19T11:55:21.304Z,11.70
2018-01-19T11:57:48.870Z,11.60
2018-01-19T12:00:16.366Z,11.70
2018-01-19T12:02:43.898Z,11.90
2018-01-19T12:07:45.403Z,12.30
2018-01-19T12:10:12.909Z,12.20
2018-01-19T12:12:40.484Z,12.10
2018-01-19T12:15:08.056Z,12.20
2018-01-19T12:17:35.517Z,12.80
2018-01-19T12:20:03.051Z,13.20
2018-01-19T12:22:30.615Z,13.80
2018-01-19T12:24:58.064Z,14.50
2018-01-19T12:27:25.597Z,14.80
2018-01-19T12:29:53.043Z,15.20
2018-01-19T12:32:20.605Z,15.60
2018-01-19T12:34:48.302Z,15.30
2018-01-19T12:37:15.814Z,15.10
2018-01-19T12:39:43.392Z,15.50
2018-01-19T12:42:10.923Z,16.30
2018-01-19T12:44:39.916Z,15.40
2018-01-19T12:47:08.343Z,14.70
2018-01-19T12:49:36.031Z,14.70
2018-01-19T12:52:04.091Z,14.10
2018-01-19T12:54:31.615Z,13.50
2018-01-19T12:56:59.864Z,12.90
2018-01-19T12:59:28.206Z,12.90
2018-01-19T13:01:56.033Z,12.70
2018-01-19T13:04:23.555Z,12.60
2018-01-19T13:06:51.033Z,12.20
2018-01-19T13:09:18.590Z,12.10
2018-01-19T13:11:46.877Z,11.80
2018-01-19T13:14:15.139Z,11.80
2018-01-19T13:16:43.396Z,11.70
2018-01-19T13:19:10.922Z,11.70
2018-01-19T13:21:38.405Z,11.60
2018-01-19T13:24:05.979Z,11.40
2018-01-19T13:26:33.480Z,10.90
2018-01-19T13:29:01.030Z,10.60
2018-01-19T13:31:28.560Z,10.40
2018-01-19T13:33:56.846Z,10.70
2018-01-19T13:36:24.414Z,10.70
2018-01-19T13:38:51.907Z,10.90
2018-01-19T13:41:19.384Z,10.90
2018-01-19T13:43:46.865Z,11.00
2018-01-19T13:46:14.364Z,11.00
2018-01-19T13:48:41.850Z,11.20
2018-01-19T13:51:09.400Z,11.20
2018-01-19T13:53:37.124Z,11.30
2018-01-19T13:56:05.404Z,11.60
2018-01-19T13:58:33.623Z,11.80
2018-01-19T14:01:01.152Z,11.80
2018-01-19T14:03:29.441Z,12.00
2018-01-19T14:05:56.941Z,12.00
2018-01-19T14:08:24.408Z,11.80
2018-01-19T14:10:51.949Z,11.50
2018-01-19T14:13:19.439Z,11.40
2018-01-19T14:15:47.687Z,11.40
2018-01-19T14:18:15.140Z,11.30
2018-01-19T14:20:42.683Z,11.40
2018-01-19T14:23:10.272Z,11.50
2018-01-19T14:25:37.760Z,11.50
2018-01-19T14:28:06.116Z,11.20
2018-01-19T14:30:33.703Z,11.20
2018-01-19T14:33:02.018Z,11.10
2018-01-19T14:35:29.538Z,11.10
2018-01-19T14:37:57.088Z,11.00
2018-01-19T14:40:25.350Z,10.70
2018-01-19T14:42:53.053Z,10.70
2018-01-19T14:45:20.659Z,10.60
2018-01-19T14:47:48.110Z,10.60
2018-01-19T14:50:15.609Z,10.50
2018-01-19T14:52:43.904Z,10.30
2018-01-19T14:55:12.265Z,10.30
2018-01-19T14:57:40.506Z,10.30
2018-01-19T15:00:07.961Z,10.30
2018-01-19T15:02:35.494Z,10.30
2018-01-19T15:05:02.957Z,10.20
2018-01-19T15:07:30.469Z,10.10
2018-01-19T15:09:58.754Z,10.20
2018-01-19T15:12:27.068Z,10.10
2018-01-19T15:14:54.509Z,10.10
2018-01-19T15:17:22.023Z,10.10
2018-01-19T15:19:49.487Z,10.10
2018-01-19T15:22:17.010Z,10.00
2018-01-19T15:24:44.594Z,10.00
2018-01-19T15:27:12.856Z,9.90
2018-01-19T15:29:40.343Z,9.90
2018-01-19T15:32:07.895Z,9.90
2018-01-19T15:34:36.248Z,9.80
2018-01-19T15:37:03.831Z,9.80
2018-01-19T15:39:31.328Z,9.70
2018-01-19T15:41:58.818Z,9.70
2018-01-19T15:44:26.620Z,9.70
2018-01-19T15:46:54.090Z,9.80
2018-01-19T15:49:22.387Z,9.70
2018-01-19T15:51:49.869Z,9.70
2018-01-19T15:54:17.433Z,9.70
2018-01-19T15:56:44.987Z,9.70
2018-01-19T15:59:12.515Z,9.70
2018-01-19T16:01:40.023Z,9.70
2018-01-19T16:04:07.605Z,9.60
2018-01-19T16:06:35.164Z,9.60
2018-01-19T16:09:02.628Z,9.60
2018-01-19T16:11:30.893Z,9.40
2018-01-19T16:13:58.370Z,9.40
2018-01-19T16:16:27.815Z,9.30
2018-01-19T16:18:55.342Z,9.20
2018-01-19T16:21:23.631Z,9.30
2018-01-19T16:23:51.954Z,9.40
2018-01-19T16:26:20.176Z,9.40
2018-01-19T16:28:48.478Z,9.40
2018-01-19T16:31:16.005Z,9.40
2018-01-19T16:33:43.516Z,9.40
2018-01-19T16:36:11.176Z,9.40
2018-01-19T16:38:38.681Z,9.40
2018-01-19T16:41:06.949Z,9.40
2018-01-19T16:43:34.383Z,9.40
2018-01-19T16:46:01.858Z,9.40
2018-01-19T16:48:30.252Z,9.40
2018-01-19T16:50:57.744Z,9.40
2018-01-19T16:53:25.208Z,9.40
2018-01-19T16:55:52.705Z,9.30
2018-01-19T16:58:20.312Z,9.10
2018-01-19T17:00:47.759Z,9.00
2018-01-19T17:03:15.230Z,9.10
2018-01-19T17:05:42.729Z,9.10
2018-01-19T17:08:10.659Z,9.10
2018-01-19T17:10:38.191Z,9.10
2018-01-19T17:13:05.742Z,9.10
2018-01-19T17:15:33.992Z,9.20
2018-01-19T17:18:01.473Z,9.20
2018-01-19T17:20:29.779Z,9.10
2018-01-19T17:22:57.288Z,9.10
2018-01-19T17:25:24.779Z,9.10
2018-01-19T17:27:52.463Z,9.20
2018-01-19T17:30:20.074Z,9.20
2018-01-19T17:32:47.587Z,9.20
2018-01-19T17:35:15.281Z,9.20
2018-01-19T17:37:42.805Z,9.10
2018-01-19T17:40:11.257Z,9.10
2018-01-19T17:42:39.472Z,9.10
2018-01-19T17:45:07.152Z,9.00
2018-01-19T17:47:34.677Z,9.10
2018-01-19T17:50:02.209Z,9.10
2018-01-19T17:52:29.837Z,9.10
2018-01-19T17:54:57.336Z,9.20
2018-01-19T17:57:24.826Z,9.20
2018-01-19T17:59:52.388Z,9.30
2018-01-19T18:02:20.601Z,9.20
2018-01-19T18:04:48.392Z,9.10
2018-01-19T18:07:15.943Z,9.20
2018-01-19T18:09:44.933Z,9.20
2018-01-19T18:12:12.484Z,9.20
2018-01-19T18:14:41.387Z,9.20
2018-01-19T18:17:09.891Z,9.30
2018-01-19T18:19:37.535Z,9.30
2018-01-19T18:22:05.138Z,9.30
2018-01-19T18:24:32.687Z,9.30
2018-01-19T18:27:00.269Z,9.30
2018-01-19T18:29:27.746Z,9.10
2018-01-19T18:31:55.312Z,9.10
2018-01-19T18:34:22.776Z,9.00
2018-01-19T18:36:50.585Z,9.00
2018-01-19T18:39:18.336Z,9.00
2018-01-19T18:41:46.651Z,8.90
2018-01-19T18:44:15.007Z,8.80
2018-01-19T18:46:42.479Z,8.80
2018-01-19T18:49:10.013Z,8.80
2018-01-19T18:51:37.529Z,8.80
2018-01-19T18:54:05.050Z,8.70
2018-01-19T18:56:32.527Z,8.70
2018-01-19T18:59:00.065Z,8.50
2018-01-19T19:01:27.595Z,8.30
2018-01-19T19:03:55.850Z,7.90
2018-01-19T19:06:23.362Z,7.90
2018-01-19T19:08:50.868Z,7.60
2018-01-19T19:11:18.428Z,7.40
2018-01-19T19:13:45.965Z,7.10
2018-01-19T19:16:13.571Z,6.90
2018-01-19T19:18:41.832Z,6.60
2018-01-19T19:21:09.313Z,6.60
2018-01-19T19:23:36.815Z,6.50
2018-01-19T19:26:04.402Z,6.60
2018-01-19T19:28:31.915Z,6.60
2018-01-19T19:30:59.394Z,6.60
2018-01-19T19:33:26.930Z,6.60
2018-01-19T19:35:54.425Z,6.60
2018-01-19T19:38:21.920Z,6.60
2018-01-19T19:40:50.263Z,6.60
2018-01-19T19:43:17.799Z,6.60
2018-01-19T19:45:45.340Z,6.50
2018-01-19T19:48:12.831Z,6.60
2018-01-19T19:50:40.370Z,6.70
2018-01-19T19:53:07.834Z,6.70
2018-01-19T19:55:35.328Z,6.70
2018-01-19T19:58:02.908Z,6.70
2018-01-19T20:00:30.477Z,6.80
2018-01-19T20:02:57.947Z,6.90
2018-01-19T20:05:25.452Z,6.70
2018-01-19T20:07:52.921Z,6.60
2018-01-19T20:10:20.400Z,6.70
2018-01-19T20:12:47.894Z,6.70
2018-01-19T20:15:15.446Z,6.80
2018-01-19T20:17:42.941Z,6.90
2018-01-19T20:20:10.399Z,7.00
2018-01-19T20:22:38.031Z,7.00
2018-01-19T20:25:05.606Z,7.10
2018-01-19T20:27:33.171Z,7.10
2018-01-19T20:30:00.644Z,7.20
2018-01-19T20:32:28.211Z,7.20
2018-01-19T20:34:55.681Z,7.10
2018-01-19T20:37:23.997Z,7.30
2018-01-19T20:39:51.502Z,7.30
2018-01-19T20:42:19.044Z,7.40
2018-01-19T20:44:46.516Z,7.50
2018-01-19T20:47:14.049Z,7.60
2018-01-19T20:49:42.357Z,7.70
2018-01-19T20:52:09.991Z,7.60
2018-01-19T20:54:37.549Z,7.50
2018-01-19T20:57:05.059Z,7.50
2018-01-19T20:59:32.574Z,7.60
2018-01-19T21:02:00.100Z,7.60
2018-01-19T21:04:27.681Z,7.70
2018-01-19T21:06:55.237Z,7.60
2018-01-19T21:09:23.031Z,7.60
2018-01-19T21:11:50.911Z,7.60
2018-01-19T21:14:18.386Z,7.60
2018-01-19T21:16:46.653Z,7.60
2018-01-19T21:19:14.773Z,7.60
2018-01-19T21:21:42.414Z,7.60
2018-01-19T21:24:09.927Z,7.60
2018-01-19T21:26:37.442Z,7.50
2018-01-19T21:29:04.979Z,7.50
2018-01-19T21:31:32.539Z,7.40
2018-01-19T21:34:00.016Z,7.30
2018-01-19T21:36:27.621Z,7.30
2018-01-19T21:38:55.286Z,7.40
2018-01-19T21:41:22.764Z,7.30
2018-01-19T21:43:50.506Z,7.30
2018-01-19T21:46:18.025Z,7.40
2018-01-19T21:48:45.574Z,7.50
2018-01-19T21:51:13.037Z,7.50
2018-01-19T21:53:40.577Z,7.50
2018-01-19T21:56:08.812Z,7.70
2018-01-19T21:58:36.327Z,7.70
2018-01-19T22:01:03.989Z,7.70
2018-01-19T22:03:31.526Z,7.60
2018-01-19T22:05:59.754Z,7.60
2018-01-19T22:08:27.242Z,7.60
2018-01-19T22:10:54.801Z,7.70
2018-01-19T22:13:22.451Z,7.60
2018-01-19T22:15:50.053Z,7.50
2018-01-19T22:18:17.593Z,7.50
2018-01-19T22:20:45.102Z,7.60
2018-01-19T22:23:12.619Z,7.60
2018-01-19T22:25:40.914Z,7.60
2018-01-19T22:28:09.162Z,7.60
2018-01-19T22:30:37.454Z,7.60
2018-01-19T22:33:05.759Z,7.70
2018-01-19T22:35:33.523Z,7.70
2018-01-19T22:38:01.022Z,7.70
2018-01-19T22:40:28.536Z,7.70
2018-01-19T22:42:56.024Z,7.70
2018-01-19T22:45:23.490Z,7.70
2018-01-19T22:47:51.043Z,7.80
2018-01-19T22:50:18.612Z,7.80
2018-01-19T22:52:46.089Z,7.80
2018-01-19T22:55:13.639Z,7.70
2018-01-19T22:57:42.138Z,7.60
2018-01-19T23:00:10.448Z,7.70
2018-01-19T23:02:37.964Z,7.70
2018-01-19T23:05:05.705Z,7.70
2018-01-19T23:07:33.205Z,7.50
2018-01-19T23:10:00.728Z,7.60
2018-01-19T23:12:29.880Z,7.60
2018-01-19T23:14:57.416Z,7.60
2018-01-19T23:17:25.688Z,7.70
2018-01-19T23:19:54.010Z,7.70
2018-01-19T23:22:21.463Z,7.70
2018-01-19T23:24:48.982Z,7.60
2018-01-19T23:27:16.510Z,7.50
2018-01-19T23:29:44.008Z,7.40
2018-01-19T23:32:11.569Z,7.40
2018-01-19T23:34:39.056Z,7.30
2018-01-19T23:37:06.586Z,7.30
2018-01-19T23:39:34.043Z,7.30
2018-01-19T23:42:01.694Z,7.20
2018-01-19T23:44:29.506Z,7.10
2018-01-19T23:46:57.153Z,7.10
2018-01-19T23:49:24.727Z,7.10
2018-01-19T23:51:52.255Z,7.10
2018-01-19T23:54:19.775Z,7.10
2018-01-19T23:56:47.284Z,7.10
2018-01-19T23:59:15.595Z,7.10
